createdAt,value
2023-05-02T00:00:51.269Z,0.00
2023-05-02T00:01:51.332Z,0.00
2023-05-02T00:02:51.487Z,0.00
2023-05-02T00:03:51.431Z,0.00
2023-05-02T00:04:51.386Z,0.00
2023-05-02T00:05:51.386Z,0.00
2023-05-02T00:06:51.628Z,0.00
2023-05-02T00:07:51.451Z,0.00
2023-05-02T00:08:51.477Z,0.00
2023-05-02T00:09:51.494Z,0.00
2023-05-02T00:10:51.547Z,0.00
2023-05-02T00:11:51.587Z,0.00
2023-05-02T00:12:51.585Z,0.00
2023-05-02T00:13:51.604Z,0.00
2023-05-02T00:14:51.631Z,0.00
2023-05-02T00:15:51.664Z,0.00
2023-05-02T00:16:51.733Z,0.00
2023-05-02T00:17:51.738Z,0.00
2023-05-02T00:18:51.735Z,0.00
2023-05-02T00:19:51.771Z,0.00
2023-05-02T00:20:51.814Z,0.00
2023-05-02T00:21:51.818Z,0.00
2023-05-02T00:22:51.845Z,0.00
2023-05-02T00:23:51.869Z,0.00
2023-05-02T00:24:51.902Z,0.00
2023-05-02T00:25:51.924Z,0.00
2023-05-02T00:26:51.973Z,0.00
2023-05-02T00:27:51.984Z,0.00
2023-05-02T00:28:52.005Z,0.00
2023-05-02T00:29:52.040Z,0.00
2023-05-02T00:30:52.229Z,0.00
2023-05-02T00:31:52.091Z,0.00
2023-05-02T00:32:52.157Z,0.00
2023-05-02T00:33:52.139Z,0.00
2023-05-02T00:34:52.165Z,0.00
2023-05-02T00:35:52.195Z,0.00
2023-05-02T00:36:52.234Z,0.00
2023-05-02T00:37:52.245Z,0.00
2023-05-02T00:38:52.276Z,0.00
2023-05-02T00:39:52.299Z,0.00
2023-05-02T00:40:52.337Z,0.00
2023-05-02T00:41:52.349Z,0.00
2023-05-02T00:42:52.376Z,0.00
2023-05-02T00:43:52.406Z,0.00
2023-05-02T00:44:52.430Z,0.00
2023-05-02T00:45:52.469Z,0.00
2023-05-02T00:46:52.650Z,0.00
2023-05-02T00:47:52.552Z,0.00
2023-05-02T00:48:52.537Z,0.00
2023-05-02T00:49:52.572Z,0.00
2023-05-02T00:50:52.589Z,0.00
2023-05-02T00:51:52.626Z,0.00
2023-05-02T00:52:52.667Z,0.00
2023-05-02T00:53:52.677Z,0.00
2023-05-02T00:54:52.700Z,0.00
2023-05-02T00:55:52.726Z,0.00
2023-05-02T00:56:52.751Z,0.00
2023-05-02T00:57:52.780Z,0.00
2023-05-02T00:58:52.802Z,0.00
2023-05-02T00:59:52.831Z,0.00
2023-05-02T01:00:52.855Z,0.00
2023-05-02T01:01:52.903Z,0.00
2023-05-02T01:02:52.951Z,0.00
2023-05-02T01:03:53.158Z,0.00
2023-05-02T01:04:52.961Z,0.00
2023-05-02T01:05:52.988Z,0.00
2023-05-02T01:06:53.043Z,0.00
2023-05-02T01:07:53.043Z,0.00
2023-05-02T01:08:53.093Z,0.00
2023-05-02T01:09:53.094Z,0.00
2023-05-02T01:10:53.147Z,0.00
2023-05-02T01:11:53.145Z,0.00
2023-05-02T01:12:53.170Z,0.00
2023-05-02T01:13:53.198Z,0.00
2023-05-02T01:14:53.224Z,0.00
2023-05-02T01:15:53.336Z,0.00
2023-05-02T01:16:53.276Z,0.00
2023-05-02T01:17:53.332Z,0.00
2023-05-02T01:18:53.329Z,0.00
2023-05-02T01:19:53.357Z,0.00
2023-05-02T01:20:53.381Z,0.00
2023-05-02T01:21:53.407Z,0.00
2023-05-02T01:22:53.435Z,0.00
2023-05-02T01:23:53.476Z,0.00
2023-05-02T01:24:53.504Z,0.00
2023-05-02T01:25:53.516Z,0.00
2023-05-02T01:26:53.544Z,0.00
2023-05-02T01:27:53.576Z,0.00
2023-05-02T01:28:53.617Z,0.00
2023-05-02T01:29:53.623Z,0.00
2023-05-02T01:30:53.646Z,0.00
2023-05-02T01:31:53.726Z,0.00
2023-05-02T01:32:53.762Z,0.00
2023-05-02T01:33:53.728Z,0.00
2023-05-02T01:34:53.751Z,0.00
2023-05-02T01:35:53.780Z,0.00
2023-05-02T01:36:53.806Z,0.00
2023-05-02T01:37:53.834Z,0.00
2023-05-02T01:38:53.860Z,0.00
2023-05-02T01:39:53.888Z,0.00
2023-05-02T01:40:53.946Z,0.00
2023-05-02T01:41:53.941Z,0.00
2023-05-02T01:42:53.969Z,0.00
2023-05-02T01:43:54.046Z,0.00
2023-05-02T01:44:54.020Z,0.00
2023-05-02T01:45:54.049Z,0.00
2023-05-02T01:46:54.091Z,0.00
2023-05-02T01:47:54.148Z,0.00
2023-05-02T01:48:54.129Z,0.00
2023-05-02T01:49:54.155Z,0.00
2023-05-02T01:50:54.186Z,0.00
2023-05-02T01:51:54.208Z,0.00
2023-05-02T01:52:54.232Z,0.00
2023-05-02T01:53:54.275Z,0.00
2023-05-02T01:54:54.285Z,0.00
2023-05-02T01:55:54.317Z,0.00
2023-05-02T01:56:54.358Z,0.00
2023-05-02T01:57:54.400Z,0.00
2023-05-02T01:58:54.394Z,0.00
2023-05-02T01:59:54.423Z,0.00
2023-05-02T02:00:54.490Z,0.00
2023-05-02T02:01:54.472Z,0.00
2023-05-02T02:02:54.521Z,0.00
2023-05-02T02:03:54.571Z,0.00
2023-05-02T02:04:54.555Z,0.00
2023-05-02T02:05:54.579Z,0.00
2023-05-02T02:06:54.698Z,0.00
2023-05-02T02:07:54.634Z,0.00
2023-05-02T02:08:54.657Z,0.00
2023-05-02T02:09:54.696Z,0.00
2023-05-02T02:10:54.710Z,0.00
2023-05-02T02:11:54.736Z,0.00
2023-05-02T02:12:54.786Z,0.00
2023-05-02T02:13:54.789Z,0.00
2023-05-02T02:14:54.817Z,0.00
2023-05-02T02:15:54.839Z,0.00
2023-05-02T02:16:54.919Z,0.00
2023-05-02T02:17:54.955Z,0.00
2023-05-02T02:18:54.922Z,0.00
2023-05-02T02:19:54.951Z,0.00
2023-05-02T02:20:54.979Z,0.00
2023-05-02T02:21:55.004Z,0.00
2023-05-02T02:22:55.024Z,0.00
2023-05-02T02:23:55.053Z,0.00
2023-05-02T02:24:55.083Z,0.00
2023-05-02T02:25:55.106Z,0.00
2023-05-02T02:26:55.129Z,0.00
2023-05-02T02:27:55.158Z,0.00
2023-05-02T02:28:55.198Z,0.00
2023-05-02T02:29:55.213Z,0.00
2023-05-02T02:30:55.288Z,0.00
2023-05-02T02:31:55.302Z,0.00
2023-05-02T02:32:55.329Z,0.00
2023-05-02T02:33:55.321Z,0.00
2023-05-02T02:34:55.361Z,0.00
2023-05-02T02:35:55.367Z,0.00
2023-05-02T02:36:55.390Z,0.00
2023-05-02T02:37:55.426Z,0.00
2023-05-02T02:38:55.451Z,0.00
2023-05-02T02:39:55.475Z,0.00
2023-05-02T02:40:55.497Z,0.00
2023-05-02T02:41:55.522Z,0.00
2023-05-02T02:42:55.550Z,0.00
2023-05-02T02:43:55.579Z,0.00
2023-05-02T02:44:55.755Z,0.00
2023-05-02T02:45:55.665Z,0.00
2023-05-02T02:46:55.654Z,0.00
2023-05-02T02:47:55.718Z,0.00
2023-05-02T02:48:55.710Z,0.00
2023-05-02T02:49:55.738Z,0.00
2023-05-02T02:50:55.759Z,0.00
2023-05-02T02:51:55.786Z,0.00
2023-05-02T02:52:55.834Z,0.00
2023-05-02T02:53:55.837Z,0.00
2023-05-02T02:54:55.866Z,0.00
2023-05-02T02:55:55.900Z,0.00
2023-05-02T02:56:55.916Z,0.00
2023-05-02T02:57:55.954Z,0.00
2023-05-02T02:58:55.968Z,0.00
2023-05-02T02:59:55.997Z,0.00
2023-05-02T03:00:56.045Z,0.00
2023-05-02T03:01:56.076Z,0.00
2023-05-02T03:02:56.148Z,0.00
2023-05-02T03:03:56.137Z,0.00
2023-05-02T03:04:56.144Z,0.00
2023-05-02T03:05:56.152Z,0.00
2023-05-02T03:06:56.284Z,0.00
2023-05-02T03:07:56.212Z,0.00
2023-05-02T03:08:56.231Z,0.00
2023-05-02T03:09:56.267Z,0.00
2023-05-02T03:10:56.291Z,0.00
2023-05-02T03:11:56.312Z,0.00
2023-05-02T03:12:56.337Z,0.00
2023-05-02T03:13:56.364Z,0.00
2023-05-02T03:14:56.390Z,0.00
2023-05-02T03:15:56.439Z,0.00
2023-05-02T03:16:56.468Z,0.00
2023-05-02T03:17:56.501Z,0.00
2023-05-02T03:18:56.494Z,0.00
2023-05-02T03:19:56.523Z,0.00
2023-05-02T03:20:56.547Z,0.00
2023-05-02T03:21:56.586Z,0.00
2023-05-02T03:22:56.607Z,0.00
2023-05-02T03:23:56.639Z,0.00
2023-05-02T03:24:56.762Z,0.00
2023-05-02T03:25:56.686Z,0.00
2023-05-02T03:26:56.708Z,0.00
2023-05-02T03:27:56.739Z,0.00
2023-05-02T03:28:56.760Z,0.00
2023-05-02T03:29:56.952Z,0.00
2023-05-02T03:30:56.818Z,0.00
2023-05-02T03:31:56.851Z,0.00
2023-05-02T03:32:57.143Z,0.00
2023-05-02T03:33:56.894Z,0.00
2023-05-02T03:34:56.922Z,0.00
2023-05-02T03:35:56.952Z,0.00
2023-05-02T03:36:56.977Z,0.00
2023-05-02T03:37:57.011Z,0.00
2023-05-02T03:38:57.033Z,0.00
2023-05-02T03:39:57.065Z,0.00
2023-05-02T03:40:57.080Z,0.00
2023-05-02T03:41:57.112Z,0.00
2023-05-02T03:42:57.140Z,0.00
2023-05-02T03:43:57.166Z,0.00
2023-05-02T03:44:57.185Z,4.00
2023-05-02T03:45:57.214Z,4.00
2023-05-02T03:46:57.271Z,0.00
2023-05-02T03:47:57.291Z,0.00
2023-05-02T03:48:57.309Z,0.00
2023-05-02T03:49:57.435Z,4.00
2023-05-02T03:50:57.358Z,4.00
2023-05-02T03:51:57.379Z,4.00
2023-05-02T03:52:57.400Z,4.00
2023-05-02T03:53:57.426Z,4.00
2023-05-02T03:54:57.453Z,8.00
2023-05-02T03:55:57.480Z,4.00
2023-05-02T03:56:57.505Z,8.00
2023-05-02T03:57:57.535Z,8.00
2023-05-02T03:58:57.558Z,12.00
2023-05-02T03:59:57.699Z,12.00
2023-05-02T04:00:57.612Z,16.00
2023-05-02T04:01:57.664Z,12.00
2023-05-02T04:02:57.711Z,12.00
2023-05-02T04:03:57.788Z,12.00
2023-05-02T04:04:57.747Z,12.00
2023-05-02T04:05:57.751Z,12.00
2023-05-02T04:06:57.773Z,16.00
2023-05-02T04:07:57.800Z,20.00
2023-05-02T04:08:57.838Z,20.00
2023-05-02T04:09:57.981Z,20.00
2023-05-02T04:10:57.880Z,24.00
2023-05-02T04:11:57.906Z,28.00
2023-05-02T04:12:57.939Z,28.00
2023-05-02T04:13:57.965Z,32.00
2023-05-02T04:14:57.988Z,32.00
2023-05-02T04:15:58.018Z,36.00
2023-05-02T04:16:58.094Z,40.00
2023-05-02T04:17:58.080Z,40.00
2023-05-02T04:18:58.094Z,44.00
2023-05-02T04:19:58.809Z,48.00
2023-05-02T04:20:58.166Z,52.00
2023-05-02T04:21:58.176Z,56.00
2023-05-02T04:22:58.202Z,60.00
2023-05-02T04:23:58.236Z,64.00
2023-05-02T04:24:58.255Z,64.00
2023-05-02T04:25:58.284Z,68.00
2023-05-02T04:26:58.307Z,72.00
2023-05-02T04:27:58.345Z,80.00
2023-05-02T04:28:58.360Z,84.00
2023-05-02T04:29:58.608Z,84.00
2023-05-02T04:30:58.502Z,84.00
2023-05-02T04:31:58.440Z,88.00
2023-05-02T04:32:58.521Z,92.00
2023-05-02T04:33:58.503Z,96.00
2023-05-02T04:34:58.520Z,100.00
2023-05-02T04:35:58.546Z,104.00
2023-05-02T04:36:58.593Z,116.00
2023-05-02T04:37:58.599Z,128.00
2023-05-02T04:38:58.627Z,148.00
2023-05-02T04:39:58.923Z,164.00
2023-05-02T04:40:58.676Z,176.00
2023-05-02T04:41:58.705Z,196.00
2023-05-02T04:42:58.746Z,224.00
2023-05-02T04:43:58.761Z,248.00
2023-05-02T04:44:58.785Z,256.00
2023-05-02T04:45:59.024Z,252.00
2023-05-02T04:46:58.845Z,244.00
2023-05-02T04:47:58.895Z,264.00
2023-05-02T04:48:58.901Z,284.00
2023-05-02T04:49:59.125Z,296.00
2023-05-02T04:50:58.948Z,280.00
2023-05-02T04:51:58.978Z,268.00
2023-05-02T04:52:59.019Z,260.00
2023-05-02T04:53:59.023Z,252.00
2023-05-02T04:54:59.059Z,268.00
2023-05-02T04:55:59.101Z,276.00
2023-05-02T04:56:59.107Z,276.00
2023-05-02T04:57:59.133Z,272.00
2023-05-02T04:58:59.164Z,280.00
2023-05-02T04:59:59.334Z,328.00
2023-05-02T05:00:59.222Z,396.00
2023-05-02T05:01:59.291Z,500.00
2023-05-02T05:03:01.435Z,680.00
2023-05-02T05:03:59.474Z,824.00
2023-05-02T05:04:59.334Z,868.00
2023-05-02T05:05:59.375Z,836.00
2023-05-02T05:06:59.514Z,732.00
2023-05-02T05:07:59.404Z,656.00
2023-05-02T05:08:59.449Z,620.00
2023-05-02T05:09:59.723Z,588.00
2023-05-02T05:10:59.485Z,556.00
2023-05-02T05:11:59.512Z,544.00
2023-05-02T05:12:59.538Z,572.00
2023-05-02T05:13:59.565Z,604.00
2023-05-02T05:14:59.591Z,600.00
2023-05-02T05:15:59.669Z,584.00
2023-05-02T05:16:59.644Z,568.00
2023-05-02T05:17:59.729Z,536.00
2023-05-02T05:18:59.703Z,496.00
2023-05-02T05:19:59.924Z,500.00
2023-05-02T05:20:59.765Z,500.00
2023-05-02T05:21:59.780Z,452.00
2023-05-02T05:22:59.810Z,388.00
2023-05-02T05:23:59.945Z,352.00
2023-05-02T05:25:00.001Z,316.00
2023-05-02T05:25:59.888Z,308.00
2023-05-02T05:27:00.042Z,324.00
2023-05-02T05:27:59.988Z,348.00
2023-05-02T05:28:59.964Z,380.00
2023-05-02T05:30:00.341Z,456.00
2023-05-02T05:31:00.059Z,500.00
2023-05-02T05:32:00.261Z,504.00
2023-05-02T05:33:00.112Z,496.00
2023-05-02T05:34:00.248Z,512.00
2023-05-02T05:35:00.168Z,492.00
2023-05-02T05:36:00.162Z,512.00
2023-05-02T05:37:00.184Z,524.00
2023-05-02T05:38:00.206Z,616.00
2023-05-02T05:39:00.236Z,620.00
2023-05-02T05:40:00.885Z,588.00
2023-05-02T05:41:00.309Z,648.00
2023-05-02T05:42:00.315Z,688.00
2023-05-02T05:43:00.348Z,700.00
2023-05-02T05:44:00.371Z,692.00
2023-05-02T05:45:00.396Z,680.00
2023-05-02T05:46:00.423Z,596.00
2023-05-02T05:47:00.496Z,476.00
2023-05-02T05:48:00.517Z,468.00
2023-05-02T05:49:00.504Z,548.00
2023-05-02T05:50:01.132Z,556.00
2023-05-02T05:51:00.559Z,544.00
2023-05-02T05:52:00.583Z,520.00
2023-05-02T05:53:00.618Z,568.00
2023-05-02T05:54:00.638Z,644.00
2023-05-02T05:55:00.665Z,676.00
2023-05-02T05:56:00.692Z,616.00
2023-05-02T05:57:00.737Z,532.00
2023-05-02T05:58:00.746Z,584.00
2023-05-02T05:59:00.785Z,728.00
2023-05-02T06:00:01.048Z,960.00
2023-05-02T06:01:00.829Z,1228.00
2023-05-02T06:02:00.954Z,1376.00
2023-05-02T06:03:00.975Z,1332.00
2023-05-02T06:04:01.108Z,1384.00
2023-05-02T06:05:00.967Z,1684.00
2023-05-02T06:06:01.034Z,1876.00
2023-05-02T06:07:00.990Z,1880.00
2023-05-02T06:08:01.015Z,1812.00
2023-05-02T06:09:01.091Z,1932.00
2023-05-02T06:10:01.412Z,2188.00
2023-05-02T06:11:01.102Z,2360.00
2023-05-02T06:12:01.122Z,2356.00
2023-05-02T06:13:01.189Z,2400.00
2023-05-02T06:14:01.175Z,2528.00
2023-05-02T06:15:01.225Z,2376.00
2023-05-02T06:16:01.293Z,2096.00
2023-05-02T06:17:01.277Z,1644.00
2023-05-02T06:18:01.307Z,1436.00
2023-05-02T06:19:01.325Z,1628.00
2023-05-02T06:20:01.667Z,1972.00
2023-05-02T06:21:01.370Z,2348.00
2023-05-02T06:22:01.391Z,2528.00
2023-05-02T06:23:01.418Z,2088.00
2023-05-02T06:24:01.457Z,1716.00
2023-05-02T06:25:01.477Z,1564.00
2023-05-02T06:26:01.530Z,1484.00
2023-05-02T06:27:01.537Z,1392.00
2023-05-02T06:28:01.556Z,1452.00
2023-05-02T06:29:01.597Z,1580.00
2023-05-02T06:30:02.130Z,1604.00
2023-05-02T06:31:01.812Z,1560.00
2023-05-02T06:32:01.819Z,1644.00
2023-05-02T06:33:01.717Z,1756.00
2023-05-02T06:34:01.710Z,1788.00
2023-05-02T06:35:01.748Z,1900.00
2023-05-02T06:36:02.300Z,1960.00
2023-05-02T06:37:01.793Z,2432.00
2023-05-02T06:38:01.822Z,2452.00
2023-05-02T06:39:01.847Z,2232.00
2023-05-02T06:40:14.909Z,2128.00
2023-05-02T06:41:01.906Z,2240.00
2023-05-02T06:42:01.933Z,2404.00
2023-05-02T06:43:01.960Z,2524.00
2023-05-02T06:44:01.982Z,2156.00
2023-05-02T06:45:02.032Z,1628.00
2023-05-02T06:46:02.043Z,1448.00
2023-05-02T06:47:02.119Z,1624.00
2023-05-02T06:48:02.155Z,1584.00
2023-05-02T06:49:02.116Z,1676.00
2023-05-02T06:50:02.442Z,1768.00
2023-05-02T06:51:02.194Z,1556.00
2023-05-02T06:52:02.207Z,1236.00
2023-05-02T06:53:02.225Z,1136.00
2023-05-02T06:54:02.263Z,1204.00
2023-05-02T06:55:02.282Z,1364.00
2023-05-02T06:56:02.314Z,1400.00
2023-05-02T06:57:02.352Z,1364.00
2023-05-02T06:58:02.402Z,1456.00
2023-05-02T06:59:02.395Z,1464.00
2023-05-02T07:00:02.743Z,1432.00
2023-05-02T07:01:02.531Z,1476.00
2023-05-02T07:02:05.129Z,1540.00
2023-05-02T07:03:02.538Z,1676.00
2023-05-02T07:04:02.627Z,1748.00
2023-05-02T07:05:02.599Z,1480.00
2023-05-02T07:06:02.785Z,1392.00
2023-05-02T07:07:02.604Z,1496.00
2023-05-02T07:08:02.642Z,1528.00
2023-05-02T07:09:02.654Z,1616.00
2023-05-02T07:10:03.016Z,1548.00
2023-05-02T07:11:02.857Z,1532.00
2023-05-02T07:12:05.341Z,1876.00
2023-05-02T07:13:02.757Z,2176.00
2023-05-02T07:14:02.792Z,2368.00
2023-05-02T07:15:02.814Z,2580.00
2023-05-02T07:16:02.920Z,2264.00
2023-05-02T07:17:03.025Z,1964.00
2023-05-02T07:18:02.917Z,1544.00
2023-05-02T07:19:02.926Z,1360.00
2023-05-02T07:20:03.321Z,1396.00
2023-05-02T07:21:02.989Z,1772.00
2023-05-02T07:22:03.003Z,2300.00
2023-05-02T07:23:03.033Z,3048.00
2023-05-02T07:24:03.052Z,3388.00
2023-05-02T07:25:03.084Z,3892.00
2023-05-02T07:26:05.611Z,4360.00
2023-05-02T07:27:03.142Z,4900.00
2023-05-02T07:28:03.163Z,5536.00
2023-05-02T07:29:03.187Z,6260.00
2023-05-02T07:30:03.565Z,6852.00
2023-05-02T07:31:03.248Z,7648.00
2023-05-02T07:32:03.339Z,8344.00
2023-05-02T07:33:03.342Z,8320.00
2023-05-02T07:34:03.334Z,9488.00
2023-05-02T07:35:03.362Z,10608.00
2023-05-02T07:36:03.381Z,8988.00
2023-05-02T07:37:03.403Z,6664.00
2023-05-02T07:38:03.431Z,4380.00
2023-05-02T07:39:03.459Z,2844.00
2023-05-02T07:40:03.865Z,1936.00
2023-05-02T07:41:03.511Z,1348.00
2023-05-02T07:42:03.541Z,1292.00
2023-05-02T07:43:03.587Z,1476.00
2023-05-02T07:44:03.609Z,1624.00
2023-05-02T07:45:03.622Z,1844.00
2023-05-02T07:46:03.697Z,1928.00
2023-05-02T07:47:03.676Z,1896.00
2023-05-02T07:48:03.766Z,1940.00
2023-05-02T07:49:03.751Z,2164.00
2023-05-02T07:50:04.002Z,2516.00
2023-05-02T07:51:03.784Z,3016.00
2023-05-02T07:52:03.810Z,3544.00
2023-05-02T07:53:03.843Z,3688.00
2023-05-02T07:54:03.863Z,3576.00
2023-05-02T07:55:03.901Z,3384.00
2023-05-02T07:56:03.947Z,3268.00
2023-05-02T07:57:03.946Z,3236.00
2023-05-02T07:58:04.004Z,3160.00
2023-05-02T07:59:05.613Z,3076.00
2023-05-02T08:00:04.262Z,2992.00
2023-05-02T08:01:04.120Z,2924.00
2023-05-02T08:02:04.078Z,2920.00
2023-05-02T08:03:04.191Z,2952.00
2023-05-02T08:04:04.437Z,3084.00
2023-05-02T08:05:04.235Z,3220.00
2023-05-02T08:06:04.246Z,3372.00
2023-05-02T08:07:04.215Z,3664.00
2023-05-02T08:08:04.245Z,3892.00
2023-05-02T08:09:04.273Z,3932.00
2023-05-02T08:10:04.506Z,3976.00
2023-05-02T08:11:04.345Z,4196.00
2023-05-02T08:12:04.347Z,4432.00
2023-05-02T08:13:04.397Z,4768.00
2023-05-02T08:14:04.408Z,5240.00
2023-05-02T08:15:04.434Z,5720.00
2023-05-02T08:16:04.555Z,6180.00
2023-05-02T08:17:04.509Z,6644.00
2023-05-02T08:18:04.552Z,6844.00
2023-05-02T08:19:04.540Z,6756.00
2023-05-02T08:20:04.559Z,6820.00
2023-05-02T08:21:04.613Z,6980.00
2023-05-02T08:22:04.616Z,6680.00
2023-05-02T08:23:04.645Z,6492.00
2023-05-02T08:24:04.674Z,6044.00
2023-05-02T08:25:04.700Z,5376.00
2023-05-02T08:26:04.732Z,5320.00
2023-05-02T08:27:04.754Z,5684.00
2023-05-02T08:28:04.787Z,5944.00
2023-05-02T08:29:04.809Z,5912.00
2023-05-02T08:30:05.033Z,5712.00
2023-05-02T08:31:04.875Z,5060.00
2023-05-02T08:32:05.036Z,4816.00
2023-05-02T08:33:05.101Z,5004.00
2023-05-02T08:34:04.949Z,4912.00
2023-05-02T08:35:04.976Z,4704.00
2023-05-02T08:36:04.996Z,4988.00
2023-05-02T08:37:05.047Z,5864.00
2023-05-02T08:38:05.051Z,6420.00
2023-05-02T08:39:05.091Z,6644.00
2023-05-02T08:40:05.145Z,6656.00
2023-05-02T08:41:05.133Z,5836.00
2023-05-02T08:42:05.157Z,4492.00
2023-05-02T08:43:05.188Z,3704.00
2023-05-02T08:44:05.217Z,3624.00
2023-05-02T08:45:05.240Z,3564.00
2023-05-02T08:46:05.262Z,3388.00
2023-05-02T08:47:05.317Z,3308.00
2023-05-02T08:48:05.363Z,3548.00
2023-05-02T08:49:05.349Z,3896.00
2023-05-02T08:50:05.372Z,4252.00
2023-05-02T08:51:05.408Z,4676.00
2023-05-02T08:52:05.428Z,5004.00
2023-05-02T08:53:05.509Z,5240.00
2023-05-02T08:54:05.494Z,5636.00
2023-05-02T08:55:05.515Z,6000.00
2023-05-02T08:56:05.559Z,6076.00
2023-05-02T08:57:05.566Z,6028.00
2023-05-02T08:58:05.601Z,5960.00
2023-05-02T08:59:05.616Z,6068.00
2023-05-02T09:00:05.649Z,6264.00
2023-05-02T09:01:05.779Z,6520.00
2023-05-02T09:02:05.698Z,6952.00
2023-05-02T09:03:05.811Z,7212.00
2023-05-02T09:04:05.800Z,7256.00
2023-05-02T09:05:05.782Z,7180.00
2023-05-02T09:06:05.985Z,7048.00
2023-05-02T09:07:05.837Z,6428.00
2023-05-02T09:08:05.864Z,6212.00
2023-05-02T09:09:05.913Z,6256.00
2023-05-02T09:10:05.921Z,6084.00
2023-05-02T09:11:06.108Z,5684.00
2023-05-02T09:12:05.985Z,5476.00
2023-05-02T09:13:06.009Z,5348.00
2023-05-02T09:14:06.031Z,5132.00
2023-05-02T09:15:06.058Z,4656.00
2023-05-02T09:16:06.164Z,3832.00
2023-05-02T09:17:06.220Z,2840.00
2023-05-02T09:18:06.164Z,2176.00
2023-05-02T09:19:06.171Z,1816.00
2023-05-02T09:20:06.447Z,1628.00
2023-05-02T09:21:06.221Z,1624.00
2023-05-02T09:22:06.253Z,1736.00
2023-05-02T09:23:06.286Z,1892.00
2023-05-02T09:24:06.309Z,2104.00
2023-05-02T09:25:06.516Z,2324.00
2023-05-02T09:26:06.369Z,2436.00
2023-05-02T09:27:06.388Z,2420.00
2023-05-02T09:28:06.424Z,2428.00
2023-05-02T09:29:06.450Z,2472.00
2023-05-02T09:30:06.470Z,2544.00
2023-05-02T09:31:06.545Z,2756.00
2023-05-02T09:32:06.604Z,3144.00
2023-05-02T09:33:06.579Z,3588.00
2023-05-02T09:34:06.579Z,4108.00
2023-05-02T09:35:06.668Z,4744.00
2023-05-02T09:36:06.635Z,5300.00
2023-05-02T09:37:06.661Z,5712.00
2023-05-02T09:38:06.695Z,6064.00
2023-05-02T09:39:06.716Z,6288.00
2023-05-02T09:40:06.745Z,6072.00
2023-05-02T09:41:06.839Z,5580.00
2023-05-02T09:42:06.800Z,5264.00
2023-05-02T09:43:06.829Z,5036.00
2023-05-02T09:44:06.862Z,4776.00
2023-05-02T09:45:06.882Z,4540.00
2023-05-02T09:46:06.949Z,4380.00
2023-05-02T09:47:07.108Z,4248.00
2023-05-02T09:48:07.021Z,4212.00
2023-05-02T09:49:06.983Z,4184.00
2023-05-02T09:50:07.017Z,4156.00
2023-05-02T09:51:07.044Z,4148.00
2023-05-02T09:52:07.070Z,4196.00
2023-05-02T09:53:07.110Z,4252.00
2023-05-02T09:54:07.126Z,4368.00
2023-05-02T09:55:07.357Z,4664.00
2023-05-02T09:56:07.177Z,5248.00
2023-05-02T09:57:07.389Z,6096.00
2023-05-02T09:58:07.233Z,7216.00
2023-05-02T09:59:07.257Z,8484.00
2023-05-02T10:00:07.287Z,9704.00
2023-05-02T10:01:07.339Z,11008.00
2023-05-02T10:02:07.343Z,12772.00
2023-05-02T10:03:07.392Z,14832.00
2023-05-02T10:04:07.418Z,16332.00
2023-05-02T10:05:07.419Z,15916.00
2023-05-02T10:06:07.492Z,13888.00
2023-05-02T10:07:07.487Z,12412.00
2023-05-02T10:08:07.511Z,11636.00
2023-05-02T10:09:07.704Z,11192.00
2023-05-02T10:10:07.571Z,11228.00
2023-05-02T10:11:07.585Z,11572.00
2023-05-02T10:12:07.616Z,11696.00
2023-05-02T10:13:07.665Z,12004.00
2023-05-02T10:14:07.670Z,12504.00
2023-05-02T10:15:07.694Z,12700.00
2023-05-02T10:16:07.780Z,12660.00
2023-05-02T10:17:07.752Z,12476.00
2023-05-02T10:18:07.826Z,12356.00
2023-05-02T10:19:11.639Z,12016.00
2023-05-02T10:20:07.960Z,11644.00
2023-05-02T10:21:07.860Z,11196.00
2023-05-02T10:22:07.895Z,10660.00
2023-05-02T10:23:07.915Z,10236.00
2023-05-02T10:25:05.548Z,9908.00
2023-05-02T10:26:05.557Z,9904.00
2023-05-02T10:27:05.620Z,9844.00
2023-05-02T10:28:05.611Z,9764.00
2023-05-02T10:29:05.658Z,9748.00
2023-05-02T10:30:05.665Z,9772.00
2023-05-02T10:31:05.717Z,9864.00
2023-05-02T10:32:05.878Z,10084.00
2023-05-02T10:34:33.404Z,11036.00
2023-05-02T10:35:33.437Z,11560.00
2023-05-02T10:36:33.462Z,12096.00
2023-05-02T10:37:33.498Z,12856.00
2023-05-02T10:38:33.521Z,13440.00
2023-05-02T10:39:33.552Z,13720.00
2023-05-02T10:41:16.115Z,14280.00
2023-05-02T10:42:16.152Z,14260.00
2023-05-02T10:43:58.727Z,13860.00
2023-05-02T10:44:59.003Z,13460.00
2023-05-02T10:45:58.784Z,12628.00
2023-05-02T10:46:58.878Z,11776.00
2023-05-02T10:47:58.866Z,11292.00
2023-05-02T10:48:58.870Z,11144.00
2023-05-02T10:49:58.924Z,10652.00
2023-05-02T10:50:58.924Z,10088.00
2023-05-02T10:51:58.950Z,9476.00
2023-05-02T10:52:58.984Z,9276.00
2023-05-02T10:53:59.026Z,8920.00
2023-05-02T10:54:59.153Z,7904.00
2023-05-02T10:55:59.068Z,6392.00
2023-05-02T10:56:59.099Z,4852.00
2023-05-02T10:57:59.291Z,4112.00
2023-05-02T10:58:59.166Z,4188.00
2023-05-02T10:59:59.183Z,4552.00
2023-05-02T11:00:59.319Z,5092.00
2023-05-02T11:01:59.874Z,5856.00
2023-05-02T11:02:59.443Z,6824.00
2023-05-02T11:03:59.325Z,8004.00
2023-05-02T11:05:59.400Z,10484.00
2023-05-02T11:06:59.399Z,11120.00
2023-05-02T11:07:59.416Z,11712.00
2023-05-02T11:08:59.454Z,12228.00
2023-05-02T11:09:59.472Z,12756.00
2023-05-02T11:10:59.647Z,12984.00
2023-05-02T11:11:59.528Z,13044.00
2023-05-02T11:12:59.554Z,13136.00
2023-05-02T11:13:59.588Z,12856.00
2023-05-02T11:14:59.804Z,12688.00
2023-05-02T11:15:59.797Z,12280.00
2023-05-02T11:16:59.751Z,13652.00
2023-05-02T11:17:59.740Z,13896.00
2023-05-02T11:18:59.725Z,14112.00
2023-05-02T11:19:59.767Z,14024.00
2023-05-02T11:21:00.165Z,13568.00
2023-05-02T11:21:59.821Z,13616.00
2023-05-02T11:23:02.667Z,13512.00
2023-05-02T11:23:59.879Z,13588.00
2023-05-02T11:25:00.163Z,13708.00
2023-05-02T11:25:59.929Z,13780.00
2023-05-02T11:26:59.967Z,13476.00
2023-05-02T11:28:00.013Z,13320.00
2023-05-02T11:30:00.100Z,13464.00
2023-05-02T11:31:00.135Z,13136.00
2023-05-02T11:32:00.140Z,13104.00
2023-05-02T11:33:00.182Z,12932.00
2023-05-02T11:34:00.174Z,12432.00
2023-05-02T11:35:00.724Z,12168.00
2023-05-02T11:36:00.220Z,12872.00
2023-05-02T11:37:00.589Z,13972.00
2023-05-02T11:38:00.275Z,13736.00
2023-05-02T11:39:00.306Z,13904.00
2023-05-02T11:40:00.350Z,14032.00
2023-05-02T11:41:00.367Z,13596.00
2023-05-02T11:42:00.392Z,12860.00
2023-05-02T11:44:00.669Z,11476.00
2023-05-02T11:45:00.845Z,10952.00
2023-05-02T11:46:00.679Z,11120.00
2023-05-02T11:47:00.742Z,11260.00
2023-05-02T11:48:00.582Z,11296.00
2023-05-02T11:49:00.641Z,11068.00
2023-05-02T11:51:00.676Z,11644.00
2023-05-02T11:52:00.697Z,12236.00
2023-05-02T11:53:00.720Z,12520.00
2023-05-02T11:54:01.072Z,13300.00
2023-05-02T11:55:00.993Z,13544.00
2023-05-02T11:56:00.806Z,12440.00
2023-05-02T11:57:00.854Z,12432.00
2023-05-02T11:58:00.866Z,12604.00
2023-05-02T11:59:00.999Z,13060.00
2023-05-02T12:00:01.136Z,13016.00
2023-05-02T12:02:01.000Z,12220.00
2023-05-02T12:03:01.081Z,11592.00
2023-05-02T12:04:01.230Z,11056.00
2023-05-02T12:05:01.270Z,10692.00
2023-05-02T12:06:01.244Z,10712.00
2023-05-02T12:07:01.284Z,10884.00
2023-05-02T12:08:01.216Z,11148.00
2023-05-02T12:09:01.408Z,11144.00
2023-05-02T12:10:01.425Z,11004.00
2023-05-02T12:11:01.265Z,10284.00
2023-05-02T12:12:01.284Z,9292.00
2023-05-02T12:13:01.335Z,8476.00
2023-05-02T12:14:01.357Z,8260.00
2023-05-02T12:15:01.805Z,8420.00
2023-05-02T12:16:01.512Z,8536.00
2023-05-02T12:17:01.450Z,8592.00
2023-05-02T12:18:01.523Z,8784.00
2023-05-02T12:19:01.501Z,9104.00
2023-05-02T12:20:01.521Z,9732.00
2023-05-02T12:21:01.770Z,10876.00
2023-05-02T12:22:01.598Z,10116.00
2023-05-02T12:23:01.636Z,9952.00
2023-05-02T12:24:01.670Z,9508.00
2023-05-02T12:25:01.992Z,8656.00
2023-05-02T12:26:02.019Z,7908.00
2023-05-02T12:27:01.943Z,7184.00
2023-05-02T12:28:01.775Z,6784.00
2023-05-02T12:30:02.089Z,6876.00
2023-05-02T12:31:01.878Z,7188.00
2023-05-02T12:32:01.917Z,7568.00
2023-05-02T12:33:01.967Z,7980.00
2023-05-02T12:34:01.953Z,8296.00
2023-05-02T12:35:01.961Z,8480.00
2023-05-02T12:36:02.006Z,8608.00
2023-05-02T12:38:02.071Z,8944.00
2023-05-02T12:39:02.130Z,9244.00
2023-05-02T12:40:02.507Z,9540.00
2023-05-02T12:41:02.141Z,9868.00